createdAt,value
2019-03-22T00:01:02.697Z,47.90
2019-03-22T00:03:32.314Z,47.40
2019-03-22T00:06:01.423Z,47.40
2019-03-22T00:08:30.343Z,47.40
2019-03-22T00:10:59.183Z,47.20
2019-03-22T00:13:28.168Z,48.10
2019-03-22T00:15:56.998Z,48.40
2019-03-22T00:18:25.806Z,48.90
2019-03-22T00:20:54.685Z,49.00
2019-03-22T00:23:23.472Z,49.60
2019-03-22T00:25:53.444Z,50.50
2019-03-22T00:28:22.240Z,50.20
2019-03-22T00:30:51.051Z,50.40
2019-03-22T00:33:20.311Z,50.50
2019-03-22T00:35:49.308Z,50.70
2019-03-22T00:38:18.913Z,50.80
2019-03-22T00:40:47.745Z,50.60
2019-03-22T00:43:16.913Z,50.60
2019-03-22T00:45:46.026Z,50.70
2019-03-22T00:48:16.364Z,49.80
2019-03-22T00:50:45.243Z,50.10
2019-03-22T00:53:14.029Z,49.80
2019-03-22T00:55:43.069Z,49.60
2019-03-22T00:58:12.499Z,49.80
2019-03-22T01:00:41.320Z,49.60
2019-03-22T01:03:10.516Z,50.00
2019-03-22T01:05:39.408Z,50.50
2019-03-22T01:08:08.195Z,51.10
2019-03-22T01:10:38.624Z,51.40
2019-03-22T01:13:07.482Z,51.70
2019-03-22T01:15:36.241Z,52.00
2019-03-22T01:18:05.441Z,51.70
2019-03-22T01:20:34.296Z,51.30
2019-03-22T01:23:03.144Z,51.40
2019-03-22T01:25:31.972Z,52.20
2019-03-22T01:28:00.771Z,51.80
2019-03-22T01:30:30.194Z,51.70
2019-03-22T01:33:03.176Z,52.10
2019-03-22T01:35:34.722Z,52.50
2019-03-22T01:38:04.723Z,52.60
2019-03-22T01:40:33.784Z,52.10
2019-03-22T01:43:03.758Z,51.90
2019-03-22T01:45:32.547Z,51.90
2019-03-22T01:48:01.525Z,52.10
2019-03-22T01:50:30.394Z,52.60
2019-03-22T01:52:59.172Z,53.10
2019-03-22T01:55:28.043Z,53.30
2019-03-22T01:57:57.296Z,53.80
2019-03-22T02:00:26.045Z,53.80
2019-03-22T02:02:55.148Z,54.10
2019-03-22T02:05:23.960Z,53.90
2019-03-22T02:07:53.630Z,54.30
2019-03-22T02:10:22.441Z,54.70
2019-03-22T02:12:51.400Z,54.80
2019-03-22T02:15:20.710Z,54.80
2019-03-22T02:17:49.520Z,54.90
2019-03-22T02:20:19.112Z,54.80
2019-03-22T02:22:48.152Z,54.50
2019-03-22T02:25:17.332Z,54.50
2019-03-22T02:27:46.829Z,54.90
2019-03-22T02:30:15.687Z,54.80
2019-03-22T02:32:44.761Z,54.60
2019-03-22T02:35:27.320Z,55.10
2019-03-22T02:37:45.020Z,55.80
2019-03-22T02:40:13.786Z,56.60
2019-03-22T02:42:42.590Z,55.90
2019-03-22T02:45:11.662Z,55.90
2019-03-22T02:47:40.514Z,55.90
2019-03-22T02:50:18.014Z,56.00
2019-03-22T02:52:41.353Z,56.60
2019-03-22T02:55:10.260Z,57.00
2019-03-22T02:57:39.123Z,56.80
2019-03-22T03:00:08.856Z,57.60
2019-03-22T03:02:37.853Z,57.40
2019-03-22T03:05:07.652Z,57.10
2019-03-22T03:07:37.478Z,56.00
2019-03-22T03:10:08.365Z,55.80
2019-03-22T03:12:37.267Z,55.70
2019-03-22T03:15:08.103Z,55.80
2019-03-22T03:17:36.929Z,56.10
2019-03-22T03:20:06.863Z,55.20
2019-03-22T03:22:35.723Z,55.70
2019-03-22T03:25:06.264Z,55.90
2019-03-22T03:27:35.002Z,55.80
2019-03-22T03:30:05.225Z,55.80
2019-03-22T03:32:34.030Z,55.80
2019-03-22T03:35:02.799Z,55.70
2019-03-22T03:37:31.689Z,56.50
2019-03-22T03:40:00.585Z,57.00
2019-03-22T03:42:29.772Z,56.80
2019-03-22T03:44:58.878Z,56.30
2019-03-22T03:47:27.690Z,56.40
2019-03-22T03:49:56.785Z,56.80
2019-03-22T03:52:25.613Z,56.90
2019-03-22T03:54:54.402Z,56.90
2019-03-22T03:57:23.615Z,57.40
2019-03-22T03:59:52.395Z,58.10
2019-03-22T04:02:21.181Z,57.70
2019-03-22T04:04:50.012Z,57.40
2019-03-22T04:07:18.768Z,57.60
2019-03-22T04:09:49.133Z,57.40
2019-03-22T04:12:18.025Z,57.80
2019-03-22T04:14:46.801Z,58.10
2019-03-22T04:17:15.871Z,58.50
2019-03-22T04:19:44.610Z,59.10
2019-03-22T04:22:13.392Z,59.30
2019-03-22T04:24:42.209Z,59.30
2019-03-22T04:27:11.278Z,58.70
2019-03-22T04:29:40.120Z,58.80
2019-03-22T04:32:08.918Z,59.70
2019-03-22T04:34:37.678Z,59.00
2019-03-22T04:37:06.868Z,58.80
2019-03-22T04:39:35.676Z,59.30
2019-03-22T04:42:04.456Z,58.60
2019-03-22T04:44:33.233Z,58.40
2019-03-22T04:47:02.075Z,58.40
2019-03-22T04:49:31.360Z,58.30
2019-03-22T04:52:00.954Z,58.20
2019-03-22T04:54:29.781Z,58.30
2019-03-22T04:56:58.889Z,58.30
2019-03-22T04:59:27.666Z,58.20
2019-03-22T05:01:56.534Z,58.60
2019-03-22T05:04:25.950Z,58.90
2019-03-22T05:06:55.055Z,59.30
2019-03-22T05:09:24.799Z,60.00
2019-03-22T05:11:53.917Z,60.30
2019-03-22T05:14:22.818Z,59.90
2019-03-22T05:16:51.622Z,59.50
2019-03-22T05:19:20.417Z,59.50
2019-03-22T05:21:49.221Z,59.40
2019-03-22T05:24:18.463Z,59.10
2019-03-22T05:26:47.707Z,60.80
2019-03-22T05:29:16.580Z,61.40
2019-03-22T05:32:17.579Z,60.00
2019-03-22T05:34:46.363Z,60.30
2019-03-22T05:37:15.872Z,61.00
2019-03-22T05:39:44.669Z,61.40
2019-03-22T05:42:13.742Z,63.00
2019-03-22T05:44:42.581Z,65.60
2019-03-22T05:47:11.517Z,62.00
2019-03-22T05:49:40.658Z,60.20
2019-03-22T05:52:09.468Z,61.20
2019-03-22T05:54:38.326Z,61.50
2019-03-22T05:57:13.445Z,57.00
2019-03-22T05:59:42.893Z,57.50
2019-03-22T06:02:09.578Z,59.70
2019-03-22T06:04:38.372Z,60.30
2019-03-22T06:07:07.190Z,60.10
2019-03-22T06:09:35.981Z,58.10
2019-03-22T06:12:04.726Z,58.50
2019-03-22T06:14:33.483Z,57.30
2019-03-22T06:17:02.313Z,56.60
2019-03-22T06:19:31.106Z,55.10
2019-03-22T06:22:00.088Z,55.70
2019-03-22T06:24:29.397Z,55.60
2019-03-22T06:26:58.202Z,55.70
2019-03-22T06:29:26.955Z,55.70
2019-03-22T06:31:56.070Z,55.80
2019-03-22T06:34:25.166Z,54.80
2019-03-22T06:36:53.944Z,54.40
2019-03-22T06:39:23.360Z,53.70
2019-03-22T06:41:52.521Z,53.90
2019-03-22T06:44:21.374Z,53.00
2019-03-22T06:46:50.513Z,53.50
2019-03-22T06:49:20.963Z,52.90
2019-03-22T06:51:49.861Z,53.30
2019-03-22T06:54:30.712Z,52.50
2019-03-22T06:56:49.314Z,52.30
2019-03-22T06:59:18.114Z,51.50
2019-03-22T07:01:47.295Z,51.50
2019-03-22T07:04:16.573Z,51.50
2019-03-22T07:06:45.387Z,50.80
2019-03-22T07:09:14.176Z,50.40
2019-03-22T07:11:42.966Z,50.70
2019-03-22T07:14:12.334Z,51.40
2019-03-22T07:16:41.157Z,51.20
2019-03-22T07:19:10.003Z,51.40
2019-03-22T07:21:39.153Z,51.50
2019-03-22T07:24:08.414Z,50.50
2019-03-22T07:26:37.509Z,51.30
2019-03-22T07:29:06.375Z,49.60
2019-03-22T07:31:35.988Z,49.00
2019-03-22T07:34:04.934Z,48.80
2019-03-22T07:36:34.888Z,46.70
2019-03-22T07:39:06.301Z,47.20
2019-03-22T07:41:35.057Z,47.30
2019-03-22T07:44:03.950Z,45.90
2019-03-22T07:46:33.164Z,45.70
2019-03-22T07:49:02.274Z,46.10
2019-03-22T07:51:31.235Z,46.20
2019-03-22T07:54:00.022Z,46.00
2019-03-22T07:56:31.543Z,45.10
2019-03-22T07:59:00.399Z,43.70
2019-03-22T08:01:29.223Z,44.00
2019-03-22T08:03:58.300Z,44.20
2019-03-22T08:06:27.165Z,44.70
2019-03-22T08:08:56.287Z,44.10
2019-03-22T08:11:25.566Z,43.30
2019-03-22T08:13:54.440Z,43.80
2019-03-22T08:16:23.598Z,43.30
2019-03-22T08:18:52.365Z,42.60
2019-03-22T08:21:21.165Z,43.20
2019-03-22T08:23:50.034Z,41.60
2019-03-22T08:26:19.679Z,41.80
2019-03-22T08:28:48.894Z,41.40
2019-03-22T08:31:18.058Z,40.20
2019-03-22T08:33:49.101Z,40.70
2019-03-22T08:36:18.135Z,39.70
2019-03-22T08:38:47.125Z,40.00
2019-03-22T08:41:16.027Z,40.20
2019-03-22T08:43:44.925Z,40.50
2019-03-22T08:46:13.806Z,39.70
2019-03-22T08:48:42.756Z,39.80
2019-03-22T08:51:11.853Z,39.40
2019-03-22T08:53:54.321Z,39.50
2019-03-22T08:56:12.284Z,40.00
2019-03-22T08:58:41.320Z,38.10
2019-03-22T09:01:10.711Z,37.70
2019-03-22T09:03:39.528Z,37.30
2019-03-22T09:06:08.352Z,37.70
2019-03-22T09:08:37.212Z,37.20
2019-03-22T09:11:06.042Z,36.70
2019-03-22T09:13:35.086Z,36.80
2019-03-22T09:16:03.857Z,36.10
2019-03-22T09:18:32.818Z,35.80
2019-03-22T09:21:01.604Z,34.60
2019-03-22T09:23:30.434Z,34.40
2019-03-22T09:25:59.665Z,34.10
2019-03-22T09:28:28.778Z,34.60
2019-03-22T09:31:09.746Z,34.10
2019-03-22T09:33:29.208Z,34.40
2019-03-22T09:35:58.327Z,33.30
2019-03-22T09:38:28.593Z,32.70
2019-03-22T09:40:58.157Z,33.00
2019-03-22T09:43:27.499Z,32.60
2019-03-22T09:45:56.456Z,32.10
2019-03-22T09:48:25.645Z,30.90
2019-03-22T09:50:54.572Z,31.40
2019-03-22T09:53:24.009Z,31.70
2019-03-22T09:55:52.828Z,30.20
2019-03-22T09:58:21.974Z,30.70
2019-03-22T10:00:50.836Z,31.00
2019-03-22T10:03:20.026Z,30.70
2019-03-22T10:05:48.985Z,31.00
2019-03-22T10:08:17.822Z,31.00
2019-03-22T10:10:46.681Z,30.80
2019-03-22T10:13:15.568Z,30.40
2019-03-22T10:15:44.423Z,29.80
2019-03-22T10:18:13.778Z,29.50
2019-03-22T10:20:42.627Z,29.30
2019-03-22T10:23:11.555Z,28.80
2019-03-22T10:25:40.514Z,28.70
2019-03-22T10:28:10.310Z,28.00
2019-03-22T10:30:39.168Z,28.70
2019-03-22T10:33:07.994Z,28.30
2019-03-22T10:35:37.330Z,28.70
2019-03-22T10:38:15.313Z,28.30
2019-03-22T10:40:37.123Z,28.50
2019-03-22T10:43:06.880Z,28.00
2019-03-22T10:45:35.655Z,27.80
2019-03-22T10:48:05.803Z,27.50
2019-03-22T10:50:34.945Z,27.20
2019-03-22T10:53:03.969Z,26.90
2019-03-22T10:55:35.540Z,27.60
2019-03-22T10:58:03.696Z,26.90
2019-03-22T11:00:32.718Z,26.20
2019-03-22T11:03:01.959Z,25.70
2019-03-22T11:05:31.451Z,26.10
2019-03-22T11:08:00.447Z,25.10
2019-03-22T11:10:30.013Z,25.70
2019-03-22T11:12:58.906Z,24.40
2019-03-22T11:15:27.860Z,24.00
2019-03-22T11:17:57.041Z,24.10
2019-03-22T11:20:25.883Z,24.60
2019-03-22T11:22:55.344Z,24.70
2019-03-22T11:25:24.354Z,23.60
2019-03-22T11:27:54.187Z,24.00
2019-03-22T11:30:22.981Z,23.90
2019-03-22T11:32:51.872Z,23.90
2019-03-22T11:35:20.632Z,22.70
2019-03-22T11:37:49.464Z,22.70
2019-03-22T11:40:18.585Z,23.00
2019-03-22T11:42:47.540Z,22.80
2019-03-22T11:45:17.552Z,23.00
2019-03-22T11:47:46.458Z,23.30
2019-03-22T11:50:15.881Z,23.40
2019-03-22T11:52:44.835Z,23.00
2019-03-22T11:55:13.816Z,22.60
2019-03-22T11:57:42.806Z,23.10
2019-03-22T12:00:18.370Z,22.50
2019-03-22T12:02:48.419Z,22.30
2019-03-22T12:05:17.849Z,22.20
2019-03-22T12:07:47.059Z,22.20
2019-03-22T12:10:16.526Z,21.50
2019-03-22T12:12:45.406Z,21.30
2019-03-22T12:15:15.734Z,21.00
2019-03-22T12:17:44.874Z,21.00
2019-03-22T12:20:15.437Z,20.50
2019-03-22T12:22:44.280Z,21.20
2019-03-22T12:25:13.982Z,21.50
2019-03-22T12:27:42.809Z,19.70
2019-03-22T12:30:14.063Z,19.70
2019-03-22T12:32:42.994Z,19.40
2019-03-22T12:35:11.839Z,19.60
2019-03-22T12:37:41.826Z,19.70
2019-03-22T12:40:11.776Z,19.40
2019-03-22T12:42:40.585Z,19.80
2019-03-22T12:45:13.854Z,20.20
2019-03-22T12:47:42.694Z,20.80
2019-03-22T12:50:11.639Z,20.50
2019-03-22T12:52:40.586Z,20.80
2019-03-22T12:55:09.933Z,19.80
2019-03-22T12:57:38.816Z,20.00
2019-03-22T13:00:12.825Z,19.20
2019-03-22T13:02:42.601Z,19.50
2019-03-22T13:05:11.541Z,19.80
2019-03-22T13:07:40.525Z,19.10
2019-03-22T13:10:10.007Z,19.30
2019-03-22T13:12:39.248Z,18.30
2019-03-22T13:15:08.436Z,18.60
2019-03-22T13:17:37.611Z,19.40
2019-03-22T13:20:09.152Z,17.90
2019-03-22T13:22:38.057Z,17.40
2019-03-22T13:25:07.377Z,17.40
2019-03-22T13:27:37.307Z,17.10
2019-03-22T13:30:06.794Z,16.80
2019-03-22T13:32:35.652Z,15.80
2019-03-22T13:35:04.528Z,16.20
2019-03-22T13:37:33.321Z,16.20
2019-03-22T13:40:02.379Z,16.20
2019-03-22T13:42:31.303Z,15.60
2019-03-22T13:45:01.178Z,15.60
2019-03-22T13:47:30.625Z,15.60
2019-03-22T13:49:59.744Z,16.00
2019-03-22T13:52:28.574Z,15.00
2019-03-22T13:54:57.383Z,14.20
2019-03-22T13:57:26.283Z,13.70
2019-03-22T13:59:55.131Z,13.90
2019-03-22T14:02:24.371Z,13.50
2019-03-22T14:04:53.182Z,13.20
2019-03-22T14:07:22.229Z,12.50
2019-03-22T14:09:52.082Z,10.10
2019-03-22T14:12:21.395Z,10.50
2019-03-22T14:14:51.123Z,11.40
2019-03-22T14:17:20.393Z,11.30
2019-03-22T14:19:49.273Z,12.30
2019-03-22T14:22:18.758Z,10.30
2019-03-22T14:24:49.228Z,10.30
2019-03-22T14:27:18.192Z,10.90
2019-03-22T14:29:47.399Z,10.70
2019-03-22T14:32:16.319Z,11.20
2019-03-22T14:34:45.145Z,10.80
2019-03-22T14:37:14.553Z,10.60
2019-03-22T14:39:43.618Z,9.70
2019-03-22T14:42:13.181Z,9.90
2019-03-22T14:44:41.959Z,9.90
2019-03-22T14:47:12.890Z,8.70
2019-03-22T14:49:41.827Z,8.00
2019-03-22T14:52:10.757Z,8.50
2019-03-22T14:54:39.501Z,7.90
2019-03-22T14:57:08.296Z,8.70
2019-03-22T14:59:37.400Z,10.10
2019-03-22T15:02:06.224Z,9.90
2019-03-22T15:04:35.425Z,11.00
2019-03-22T15:07:04.272Z,10.40
2019-03-22T15:09:33.064Z,10.00
2019-03-22T15:12:01.931Z,10.50
2019-03-22T15:15:01.200Z,10.50
2019-03-22T15:17:52.460Z,9.90
2019-03-22T15:20:32.533Z,10.20
2019-03-22T15:23:19.799Z,9.90
2019-03-22T15:26:17.564Z,8.90
2019-03-22T15:29:11.974Z,8.70
2019-03-22T15:32:03.563Z,9.40
2019-03-22T15:34:50.914Z,10.70
2019-03-22T15:37:51.570Z,10.10
2019-03-22T15:40:20.487Z,10.20
2019-03-22T15:42:49.362Z,11.00
2019-03-22T15:45:18.170Z,11.60
2019-03-22T15:47:47.268Z,11.50
2019-03-22T15:50:16.236Z,11.50
2019-03-22T15:52:45.181Z,12.50
2019-03-22T15:55:14.012Z,12.90
2019-03-22T15:57:43.228Z,13.60
2019-03-22T16:00:15.768Z,14.10
2019-03-22T16:02:44.785Z,14.40
2019-03-22T16:05:13.799Z,14.90
2019-03-22T16:07:42.685Z,15.30
2019-03-22T16:10:11.622Z,15.60
2019-03-22T16:12:41.095Z,15.60
2019-03-22T16:15:10.639Z,16.00
2019-03-22T16:17:39.750Z,17.00
2019-03-22T16:20:08.962Z,16.90
2019-03-22T16:22:37.776Z,17.40
2019-03-22T16:25:07.463Z,17.70
2019-03-22T16:27:36.247Z,18.10
2019-03-22T16:30:05.899Z,18.10
2019-03-22T16:32:34.725Z,17.90
2019-03-22T16:35:04.775Z,18.60
2019-03-22T16:37:33.604Z,18.60
2019-03-22T16:40:04.571Z,18.60
2019-03-22T16:42:33.786Z,19.00
2019-03-22T16:45:02.831Z,18.90
2019-03-22T16:47:32.240Z,18.80
2019-03-22T16:50:01.219Z,20.00
2019-03-22T16:52:30.133Z,20.10
2019-03-22T16:54:58.923Z,20.10
2019-03-22T16:57:27.843Z,20.50
2019-03-22T16:59:57.011Z,20.90
2019-03-22T17:02:25.918Z,21.50
2019-03-22T17:04:55.847Z,22.50
2019-03-22T17:07:25.046Z,21.30
2019-03-22T17:09:54.129Z,21.70
2019-03-22T17:12:22.929Z,22.30
2019-03-22T17:14:52.327Z,23.80
2019-03-22T17:17:21.109Z,23.20
2019-03-22T17:19:50.242Z,23.30
2019-03-22T17:22:18.980Z,23.20
2019-03-22T17:24:48.796Z,23.20
2019-03-22T17:27:17.871Z,23.60
2019-03-22T17:29:46.658Z,23.90
2019-03-22T17:32:15.449Z,24.50
2019-03-22T17:37:13.582Z,23.80
2019-03-22T17:39:42.733Z,25.20
2019-03-22T17:42:11.613Z,25.30
2019-03-22T17:44:40.435Z,25.00
2019-03-22T17:47:09.447Z,25.70
2019-03-22T17:49:47.540Z,25.80
2019-03-22T17:52:09.151Z,26.20
2019-03-22T17:54:39.530Z,26.90
2019-03-22T17:57:18.208Z,27.20
2019-03-22T17:59:40.311Z,27.90
2019-03-22T18:02:09.279Z,28.20
2019-03-22T18:04:38.164Z,28.00
2019-03-22T18:07:07.152Z,28.20
2019-03-22T18:09:36.265Z,28.60
2019-03-22T18:12:05.377Z,29.40
2019-03-22T18:14:34.351Z,29.40
2019-03-22T18:17:03.698Z,29.90
2019-03-22T18:19:33.046Z,29.90
2019-03-22T18:22:02.192Z,30.10
2019-03-22T18:24:30.971Z,30.30
2019-03-22T18:26:59.782Z,30.00
2019-03-22T18:29:29.910Z,30.00
2019-03-22T18:31:58.772Z,31.70
2019-03-22T18:34:34.213Z,31.40
2019-03-22T18:36:58.566Z,31.40
2019-03-22T18:39:27.947Z,32.30
2019-03-22T18:41:56.729Z,31.20
2019-03-22T18:44:25.656Z,32.40
2019-03-22T18:46:54.462Z,33.40
2019-03-22T18:49:23.356Z,33.10
2019-03-22T18:51:52.213Z,30.60
2019-03-22T18:54:21.280Z,31.20
2019-03-22T18:56:50.195Z,32.00
2019-03-22T18:59:19.055Z,31.40
2019-03-22T19:01:47.902Z,31.40
2019-03-22T19:04:16.732Z,32.30
2019-03-22T19:06:46.033Z,32.10
2019-03-22T19:09:14.840Z,32.70
2019-03-22T19:11:43.692Z,33.30
2019-03-22T19:14:13.234Z,33.10
2019-03-22T19:16:42.351Z,33.10
2019-03-22T19:19:11.416Z,33.60
2019-03-22T19:21:40.562Z,34.90
2019-03-22T19:24:09.391Z,34.70
2019-03-22T19:26:38.166Z,35.00
2019-03-22T19:29:07.309Z,34.60
2019-03-22T19:31:36.067Z,35.50
2019-03-22T19:34:04.874Z,35.80
2019-03-22T19:36:33.684Z,37.30
2019-03-22T19:39:04.074Z,37.90
2019-03-22T19:41:33.408Z,37.00
2019-03-22T19:44:02.306Z,37.30
2019-03-22T19:46:31.509Z,37.70
2019-03-22T19:49:00.322Z,37.50
2019-03-22T19:51:29.159Z,38.40
2019-03-22T19:53:57.928Z,38.50
2019-03-22T19:56:27.126Z,39.00
2019-03-22T19:58:55.887Z,39.30
2019-03-22T20:01:24.943Z,40.20
2019-03-22T20:03:53.841Z,39.70
2019-03-22T20:06:22.977Z,40.50
2019-03-22T20:08:51.850Z,40.00
2019-03-22T20:11:20.763Z,40.40
2019-03-22T20:13:49.635Z,40.50
2019-03-22T20:16:18.450Z,40.80
2019-03-22T20:18:47.230Z,40.90
2019-03-22T20:21:16.061Z,41.10
2019-03-22T20:23:53.545Z,41.70
2019-03-22T20:26:17.117Z,42.10
2019-03-22T20:28:45.910Z,42.10
2019-03-22T20:31:14.726Z,41.90
2019-03-22T20:33:43.583Z,42.40
2019-03-22T20:36:12.428Z,42.70
2019-03-22T20:38:41.196Z,42.60
2019-03-22T20:41:10.012Z,42.90
2019-03-22T20:43:38.885Z,43.40
2019-03-22T20:46:07.745Z,42.90
2019-03-22T20:48:36.631Z,43.40
2019-03-22T20:51:05.489Z,43.80
2019-03-22T20:53:34.412Z,43.70
2019-03-22T20:56:03.260Z,44.30
2019-03-22T20:58:34.464Z,44.40
2019-03-22T21:01:03.324Z,44.30
2019-03-22T21:03:32.115Z,45.40
2019-03-22T21:06:01.216Z,44.70
2019-03-22T21:08:30.360Z,45.20
2019-03-22T21:11:01.857Z,45.90
2019-03-22T21:13:30.720Z,45.80
2019-03-22T21:16:02.727Z,46.00
2019-03-22T21:18:31.571Z,45.70
2019-03-22T21:21:02.167Z,46.30
2019-03-22T21:23:36.354Z,46.10
2019-03-22T21:26:01.728Z,46.40
2019-03-22T21:28:30.726Z,46.10
2019-03-22T21:30:59.610Z,46.50
2019-03-22T21:33:28.421Z,47.60
2019-03-22T21:35:57.500Z,47.70
2019-03-22T21:38:26.387Z,47.90
2019-03-22T21:40:55.288Z,48.10
2019-03-22T21:43:24.073Z,48.30
2019-03-22T21:45:52.911Z,48.50
2019-03-22T21:48:22.075Z,49.50
2019-03-22T21:50:50.863Z,49.10
2019-03-22T21:53:19.666Z,49.40
2019-03-22T21:55:48.440Z,49.20
2019-03-22T21:58:18.323Z,49.10
2019-03-22T22:00:47.511Z,49.50
2019-03-22T22:03:16.575Z,49.40
2019-03-22T22:05:48.012Z,49.50
2019-03-22T22:08:16.653Z,50.10
2019-03-22T22:10:46.084Z,49.70
2019-03-22T22:13:14.878Z,50.00
2019-03-22T22:15:43.864Z,50.10
2019-03-22T22:18:13.018Z,50.80
2019-03-22T22:20:41.752Z,51.60
2019-03-22T22:23:10.596Z,51.50
2019-03-22T22:25:39.903Z,52.00
2019-03-22T22:28:08.665Z,51.10
2019-03-22T22:30:37.555Z,51.60
2019-03-22T22:33:06.369Z,50.50
2019-03-22T22:35:35.127Z,50.40
2019-03-22T22:38:04.251Z,51.00
2019-03-22T22:40:33.041Z,50.80
2019-03-22T22:43:01.956Z,51.20
2019-03-22T22:45:31.003Z,51.00
2019-03-22T22:48:01.234Z,50.20
2019-03-22T22:50:30.463Z,49.50
2019-03-22T22:52:59.243Z,49.70
2019-03-22T22:55:28.128Z,49.00
2019-03-22T22:57:57.029Z,49.60
2019-03-22T23:00:27.204Z,49.50
2019-03-22T23:02:59.960Z,49.40
2019-03-22T23:05:31.499Z,50.20
2019-03-22T23:08:02.226Z,50.90
2019-03-22T23:10:32.631Z,51.60
2019-03-22T23:13:01.497Z,51.60
2019-03-22T23:15:30.285Z,52.40
2019-03-22T23:17:59.436Z,53.20
2019-03-22T23:20:28.191Z,53.00
2019-03-22T23:22:57.441Z,53.20
2019-03-22T23:25:26.248Z,53.80
2019-03-22T23:27:55.271Z,53.70
2019-03-22T23:30:24.136Z,54.00
2019-03-22T23:32:53.008Z,53.80
2019-03-22T23:35:22.109Z,54.20
2019-03-22T23:37:51.204Z,54.00
2019-03-22T23:40:20.059Z,54.20
2019-03-22T23:42:49.219Z,53.60
2019-03-22T23:45:18.186Z,54.40
2019-03-22T23:47:46.953Z,54.90
2019-03-22T23:50:15.844Z,56.10
2019-03-22T23:52:45.056Z,55.40
2019-03-22T23:55:14.125Z,54.30
2019-03-22T23:57:43.005Z,54.20
